Archival Weather

Heathrow

London, United Kingdom (EGLL)

Report from: Friday, June 21, 2024 4:50 PM BST
Current time: Sunday, July 14, 2024 10:51 AM BST

Current weather – Weather history – Daily summaries
Weather forecast

Temperature22.0°C (71.6°F)
Dew point10.0°C (50.0°F)
Winds 15 kts (7.7 m/s, 17.3 mph) South-Southwest (210°)
Visibility6.2 mi. (10 km)
Clouds Sky clear
Altimeter29.85 in.Hg (1011 mB)
Relative humidity46 %
Density altitude1,066 ft. (325 m)
Remarks Fully automated report
No clouds detected
No significant changes expected in the next two hours
Flight conditions Visual Meteorological Conditions
Raw dataEGLL 211550Z AUTO 21015KT 9999 NCD 22/10 Q1011 NOSIG
An error has occurred. This application may no longer respond until reloaded. Reload 🗙